Time;durP1;ratioP1;P1;durP2;ratioP2;P2;SDS_P1;SDS_P2;PMS_P1;PMS_P2;Temp;Humidity;BMP_temperature;BMP_pressure;BME280_temperature;BME280_humidity;BME280_pressure;Samples;Min_cycle;Max_cycle;Signal;HPM_P1;HPM_P2
2021/12/17 00:01:51;;;;;;;48.83;30.05;;;;;;;7.71;100.00;102635.50;4884692;29;20052;-90
2021/12/17 00:04:26;;;;;;;51.85;29.50;;;;;;;7.66;100.00;102623.22;4883201;29;20052;-90
2021/12/17 00:06:53;;;;;;;46.72;28.98;;;;;;;7.60;100.00;102610.00;4883525;29;20053;-90
2021/12/17 00:09:21;;;;;;;53.08;30.52;;;;;;;7.47;100.00;102577.50;4886968;29;20067;-90
2021/12/17 00:11:47;;;;;;;45.08;27.65;;;;;;;7.83;100.00;102631.13;4884267;29;20564;-90
2021/12/17 00:14:24;;;;;;;48.88;28.38;;;;;;;7.84;100.00;102619.69;4882548;29;20120;-90
2021/12/17 00:16:52;;;;;;;50.97;28.48;;;;;;;7.78;100.00;102615.28;4881339;29;20112;-90
2021/12/17 00:50:10;;;;;;;44.28;27.23;;;;;;;7.83;100.00;102644.31;4876427;29;20216;-92
2021/12/17 00:52:39;;;;;;;43.75;26.27;;;;;;;7.87;100.00;102646.94;4892741;29;20134;-89
2021/12/17 00:55:09;;;;;;;43.00;25.58;;;;;;;7.69;100.00;102610.03;4893792;29;20077;-90
2021/12/17 00:57:41;;;;;;;51.30;28.70;;;;;;;7.72;100.00;102621.44;4897514;29;20036;-89
2021/12/17 01:00:14;;;;;;;47.58;28.15;;;;;;;7.85;100.00;102640.81;4904421;29;20045;-90
2021/12/17 01:02:41;;;;;;;44.65;27.55;;;;;;;7.71;100.00;102609.13;4901198;29;20077;-90
2021/12/17 01:05:16;;;;;;;43.85;25.80;;;;;;;7.67;100.00;102599.47;4880286;29;20052;-90
2021/12/17 01:07:46;;;;;;;45.92;27.10;;;;;;;7.74;100.00;102624.97;4896927;29;20057;-89
2021/12/17 01:10:22;;;;;;;46.83;26.70;;;;;;;7.90;100.00;102646.94;4901326;29;20047;-90
2021/12/17 01:12:50;;;;;;;40.00;24.48;;;;;;;7.91;100.00;102635.50;4902336;29;20496;-90
2021/12/17 01:15:19;;;;;;;37.33;24.42;;;;;;;7.93;100.00;102646.94;4892929;29;20041;-90
2021/12/17 01:17:50;;;;;;;39.85;24.25;;;;;;;7.86;100.00;102632.00;4901840;29;20105;-89
2021/12/17 01:36:30;;;;;;;40.90;24.50;;;;;;;7.77;100.00;102607.38;4880555;29;20073;-89
2021/12/17 01:43:53;;;;;;;36.00;22.70;;;;;;;7.56;100.00;102587.16;4879849;29;20053;-90
2021/12/17 01:46:30;;;;;;;36.47;22.45;;;;;;;7.96;100.00;102653.97;4883509;29;20072;-90
2021/12/17 01:59:58;;;;;;;36.58;23.50;;;;;;;7.92;100.00;102661.00;4880058;29;20072;-90
2021/12/17 02:02:27;;;;;;;37.30;22.63;;;;;;;7.70;100.00;102612.66;4880204;29;20053;-90
2021/12/17 02:04:54;;;;;;;34.38;22.33;;;;;;;7.74;100.00;102618.81;4878506;29;20053;-90
2021/12/17 02:07:22;;;;;;;36.83;22.27;;;;;;;7.55;100.00;102577.50;4879304;29;20051;-90
2021/12/17 02:32:03;;;;;;;33.80;21.13;;;;;;;7.89;100.00;102615.28;4887447;29;20057;-90
2021/12/17 02:37:17;;;;;;;35.90;20.77;;;;;;;8.05;99.76;102643.41;4890077;29;20076;-89
2021/12/17 02:42:37;;;;;;;35.53;21.48;;;;;;;8.02;99.70;102628.50;4890619;29;20073;-89
2021/12/17 02:48:05;;;;;;;32.88;20.17;;;;;;;7.98;99.68;102621.44;4898099;29;20048;-90
2021/12/17 02:50:34;;;;;;;31.85;20.33;;;;;;;7.99;99.63;102632.88;4904494;29;20029;-89
2021/12/17 02:53:07;;;;;;;33.17;20.58;;;;;;;7.83;99.73;102594.19;4902037;29;20078;-91
2021/12/17 02:55:46;;;;;;;30.60;20.33;;;;;;;7.85;99.64;102606.50;4900020;29;20037;-89
2021/12/17 02:58:13;;;;;;;34.95;20.33;;;;;;;7.98;99.91;102621.44;4893665;29;20050;-89
2021/12/17 03:00:42;;;;;;;29.35;18.95;;;;;;;7.89;99.85;102607.38;4893406;29;20082;-90
2021/12/17 03:03:10;;;;;;;29.83;19.65;;;;;;;7.81;100.00;102598.59;4892766;29;20069;-90
2021/12/17 03:05:40;;;;;;;34.85;20.23;;;;;;;7.60;99.75;102565.19;4889996;29;20064;-88
2021/12/17 03:08:12;;;;;;;32.08;19.80;;;;;;;7.79;99.30;102606.50;4893402;29;20086;-90
2021/12/17 03:10:39;;;;;;;30.27;18.73;;;;;;;7.82;99.04;102598.59;4893089;29;20133;-90
2021/12/17 03:13:06;;;;;;;32.60;18.27;;;;;;;7.93;99.40;102630.22;4891474;29;20049;-90
2021/12/17 03:15:47;;;;;;;30.45;18.77;;;;;;;7.97;99.38;102632.88;4884222;29;20421;-90
2021/12/17 03:24:07;;;;;;;26.83;17.42;;;;;;;7.89;97.83;102610.00;4842835;29;20086;-90
2021/12/17 03:26:35;;;;;;;27.30;17.65;;;;;;;7.99;97.45;102628.47;4867547;29;20072;-89
2021/12/17 03:29:07;;;;;;;26.08;18.02;;;;;;;7.95;97.61;102617.94;4871984;29;20120;-90
2021/12/17 03:31:36;;;;;;;28.95;17.67;;;;;;;8.02;97.25;102631.13;4883808;29;20072;-90
2021/12/17 03:34:17;;;;;;;27.25;18.50;;;;;;;7.67;97.23;102562.56;4881905;29;20045;-89
2021/12/17 03:36:53;;;;;;;29.52;17.60;;;;;;;7.69;96.96;102562.56;4880516;29;20053;-90
2021/12/17 03:39:23;;;;;;;25.88;16.88;;;;;;;7.95;96.47;102599.47;4882660;29;20235;-89
2021/12/17 03:41:51;;;;;;;28.50;17.55;;;;;;;8.02;96.34;102612.66;4879399;29;20497;-90
2021/12/17 03:44:20;;;;;;;25.52;17.02;;;;;;;7.85;96.62;102580.13;4886141;29;20048;-90
2021/12/17 03:46:49;;;;;;;27.90;17.70;;;;;;;8.07;96.44;102610.88;4893588;29;20055;-90
2021/12/17 03:49:16;;;;;;;26.35;16.67;;;;;;;7.96;96.52;102588.91;4894043;29;20049;-89
2021/12/17 03:54:28;;;;;;;23.95;16.20;;;;;;;8.04;96.32;102591.50;4902307;29;20029;-89
2021/12/17 03:56:55;;;;;;;22.05;15.10;;;;;;;7.90;96.05;102561.63;4898288;29;20049;-89
2021/12/17 03:59:22;;;;;;;22.77;15.73;;;;;;;8.12;95.20;102595.03;4900191;29;20053;-89
2021/12/17 04:01:49;;;;;;;22.35;15.25;;;;;;;8.14;94.44;102603.84;4902132;29;20057;-90
2021/12/17 04:04:16;;;;;;;22.25;15.20;;;;;;;7.70;94.36;102519.50;4900850;29;20049;-90
2021/12/17 04:06:43;;;;;;;23.95;14.90;;;;;;;8.12;94.75;102599.44;4899269;29;20066;-90
2021/12/17 04:09:10;;;;;;;23.25;14.80;;;;;;;8.09;94.09;102595.03;4891229;29;20053;-89
2021/12/17 04:11:37;;;;;;;23.30;15.15;;;;;;;7.97;94.09;102572.19;4890175;29;20048;-90
2021/12/17 04:14:05;;;;;;;22.75;15.40;;;;;;;7.69;93.64;102517.72;4882426;29;20057;-90
2021/12/17 04:16:33;;;;;;;22.63;15.30;;;;;;;7.92;93.63;102565.16;4882669;29;20125;-90
2021/12/17 04:18:59;;;;;;;23.10;14.50;;;;;;;8.10;93.33;102589.75;4882064;29;20051;-89
2021/12/17 04:21:27;;;;;;;22.23;14.60;;;;;;;8.09;93.24;102584.47;4880229;29;20067;-90
2021/12/17 04:23:54;;;;;;;21.40;14.15;;;;;;;7.96;92.37;102554.59;4881350;29;20057;-90
2021/12/17 04:26:23;;;;;;;19.48;14.35;;;;;;;8.14;92.38;102584.47;4883326;29;20047;-90
2021/12/17 04:28:52;;;;;;;20.27;14.27;;;;;;;8.13;92.26;102594.16;4882138;29;20061;-89
2021/12/17 04:31:25;;;;;;;19.25;13.27;;;;;;;7.93;92.15;102556.38;4883259;29;20053;-90
2021/12/17 04:33:52;;;;;;;19.02;12.95;;;;;;;8.14;92.02;102593.28;4895919;29;20049;-90
2021/12/17 04:36:25;;;;;;;21.10;13.52;;;;;;;8.16;91.92;102596.78;4902266;29;20093;-89
2021/12/17 04:38:52;;;;;;;18.70;13.20;;;;;;;8.16;92.23;102580.97;4884970;29;20496;-90
2021/12/17 04:44:53;;;;;;;22.27;14.10;;;;;;;7.73;92.17;102516.81;4886742;29;20057;-90
2021/12/17 04:46:51;;;;;;;23.10;14.80;;;;;;;8.07;92.25;102580.97;4873452;29;20077;-90
2021/12/17 04:57:37;;;;;;;22.25;15.00;;;;;;;7.82;93.92;102561.66;4882692;29;20493;-90
2021/12/17 05:00:19;;;;;;;21.48;14.35;;;;;;;7.90;94.15;102588.03;4879619;29;20136;-90
2021/12/17 05:02:50;;;;;;;23.67;15.80;;;;;;;7.86;94.55;102579.25;4873869;29;20057;-90
2021/12/17 05:05:19;;;;;;;24.08;15.65;;;;;;;7.71;94.46;102552.91;4878144;29;20079;-89
2021/12/17 05:07:55;;;;;;;21.25;14.43;;;;;;;7.74;94.14;102566.06;4876798;29;20497;-89
2021/12/17 05:18:42;;;;;;;18.10;12.45;;;;;;;7.47;92.65;102537.06;4878969;29;20053;-89
2021/12/17 05:21:10;;;;;;;16.85;12.00;;;;;;;7.45;92.39;102537.06;4874678;29;20057;-89
2021/12/17 05:23:42;;;;;;;16.55;12.18;;;;;;;7.48;91.68;102544.97;4895010;29;20029;-89
2021/12/17 05:26:14;;;;;;;19.30;13.00;;;;;;;7.62;90.88;102576.63;4898065;29;20080;-89
2021/12/17 05:28:47;;;;;;;19.30;12.57;;;;;;;7.51;90.64;102568.72;4882421;29;20053;-89
2021/12/17 05:31:16;;;;;;;19.88;13.15;;;;;;;7.40;90.97;102550.25;4880406;29;20830;-89
2021/12/17 05:33:43;;;;;;;19.13;13.30;;;;;;;7.55;91.54;102580.16;4884844;29;20037;-89
2021/12/17 05:36:10;;;;;;;18.98;13.30;;;;;;;7.52;91.28;102573.13;4896190;29;20037;-89
2021/12/17 05:38:37;;;;;;;21.65;15.10;;;;;;;7.70;91.30;102599.47;4878441;29;20133;-89
2021/12/17 05:41:03;;;;;;;23.33;15.05;;;;;;;7.71;91.56;102611.75;4872913;29;20512;-89
2021/12/17 05:43:35;;;;;;;22.58;15.48;;;;;;;7.51;91.79;102573.09;4877850;29;20053;-89
2021/12/17 05:48:34;;;;;;;21.52;14.27;;;;;;;7.72;92.43;102613.53;4887340;29;20053;-89
2021/12/17 05:51:04;;;;;;;22.70;15.02;;;;;;;7.59;92.72;102593.31;4873283;29;20456;-90
2021/12/17 05:53:32;;;;;;;22.27;15.07;;;;;;;7.64;92.27;102590.69;4880493;29;20671;-90
2021/12/17 05:55:59;;;;;;;21.60;15.27;;;;;;;7.67;92.57;102591.56;4876814;29;20083;-90
2021/12/17 05:58:28;;;;;;;22.35;15.75;;;;;;;7.72;92.34;102596.81;4879486;29;20083;-90
2021/12/17 06:00:55;;;;;;;21.92;15.43;;;;;;;7.45;91.90;102550.25;4880907;29;20059;-89
2021/12/17 06:03:23;;;;;;;19.88;14.48;;;;;;;7.75;92.29;102604.72;4879468;29;20057;-90
2021/12/17 06:05:50;;;;;;;22.70;14.70;;;;;;;7.45;92.26;102558.16;4881835;29;20045;-90
2021/12/17 06:08:17;;;;;;;21.50;14.68;;;;;;;7.72;91.79;102605.59;4878588;29;20049;-90
2021/12/17 06:10:44;;;;;;;20.80;14.05;;;;;;;7.73;90.21;102609.13;4881720;29;20481;-90
2021/12/17 06:13:11;;;;;;;19.80;13.77;;;;;;;7.66;89.26;102587.16;4877761;29;20102;-88
2021/12/17 06:15:39;;;;;;;18.80;13.43;;;;;;;7.80;89.28;102608.25;4884678;29;20041;-90
2021/12/17 06:18:06;;;;;;;21.02;14.23;;;;;;;7.63;88.93;102587.16;4892236;29;20041;-88
2021/12/17 06:20:33;;;;;;;19.42;13.80;;;;;;;7.65;89.11;102587.16;4900766;29;20104;-89
2021/12/17 06:23:00;;;;;;;19.33;13.75;;;;;;;7.78;89.32;102619.69;4880048;29;20057;-89
2021/12/17 06:25:27;;;;;;;19.73;13.02;;;;;;;7.58;88.81;102581.00;4881714;29;20171;-89
2021/12/17 06:27:56;;;;;;;15.33;11.77;;;;;;;7.61;87.67;102578.38;4881077;29;20109;-90
2021/12/17 06:30:23;;;;;;;17.23;12.70;;;;;;;7.68;87.59;102592.44;4881520;29;20060;-89
2021/12/17 06:32:50;;;;;;;19.15;13.93;;;;;;;7.70;87.65;102606.50;4880587;29;20104;-89
2021/12/17 06:35:18;;;;;;;19.55;13.48;;;;;;;7.42;87.96;102557.28;4875545;29;20052;-89
2021/12/17 06:37:47;;;;;;;19.50;14.10;;;;;;;7.59;88.46;102592.44;4878346;29;20076;-89
2021/12/17 06:40:14;;;;;;;18.05;13.30;;;;;;;7.57;88.50;102578.34;4880901;29;20492;-89
2021/12/17 06:42:41;;;;;;;20.17;14.75;;;;;;;7.69;88.59;102613.53;4878367;29;20056;-89
2021/12/17 06:45:18;;;;;;;19.00;13.77;;;;;;;7.68;88.24;102597.72;4892646;29;20090;-89
2021/12/17 06:47:55;;;;;;;19.73;13.05;;;;;;;7.72;88.04;102623.19;4893060;29;20109;-88
2021/12/17 07:17:09;;;;;;;16.90;11.48;;;;;;;7.74;84.17;102613.53;4898783;29;20053;-91
2021/12/17 07:17:33;;;;;;;13.88;10.00;;;;;;;7.56;83.54;102581.88;4875205;29;20045;-90
2021/12/17 07:23:12;;;;;;;13.55;11.00;;;;;;;7.66;83.20;102599.47;4866994;29;20064;-90
2021/12/17 07:33:47;;;;;;;12.90;9.77;;;;;;;7.65;82.74;102605.63;4881763;29;20116;-91
2021/12/17 07:36:37;;;;;;;14.13;10.40;;;;;;;7.55;83.00;102594.22;4883835;29;20222;-91
2021/12/17 07:39:17;;;;;;;15.85;11.38;;;;;;;7.64;82.97;102607.38;4894428;29;20065;-90
2021/12/17 07:41:44;;;;;;;14.68;11.05;;;;;;;7.33;82.85;102552.88;4909361;29;20041;-93
2021/12/17 07:44:13;;;;;;;16.27;12.15;;;;;;;7.78;83.01;102612.66;4893631;29;20052;-91
2021/12/17 07:46:40;;;;;;;15.85;11.50;;;;;;;7.81;82.66;102630.25;4890620;29;20086;-91
2021/12/17 07:49:10;;;;;;;15.98;11.90;;;;;;;7.64;83.10;102586.28;4906912;29;20052;-91
2021/12/17 07:51:38;;;;;;;16.02;11.43;;;;;;;7.47;83.49;102553.75;4896124;29;20069;-93
2021/12/17 07:54:07;;;;;;;16.00;11.90;;;;;;;7.90;83.60;102619.69;4896185;29;20065;-94
2021/12/17 07:56:39;;;;;;;14.43;11.13;;;;;;;7.97;82.46;102627.59;4898324;29;20104;-91
2021/12/17 07:59:09;;;;;;;15.77;11.93;;;;;;;7.88;81.90;102601.22;4896689;29;20049;-91
2021/12/17 08:01:37;;;;;;;15.07;11.25;;;;;;;8.02;81.31;102631.13;4899256;29;20047;-91
2021/12/17 08:04:06;;;;;;;15.07;11.00;;;;;;;7.99;81.16;102619.69;4900352;29;20049;-89
2021/12/17 08:06:35;;;;;;;15.55;11.40;;;;;;;8.01;81.55;102624.09;4888144;29;20045;-89
2021/12/17 08:09:03;;;;;;;15.73;11.88;;;;;;;8.04;80.87;102621.41;4883031;29;20093;-91
2021/12/17 08:11:37;;;;;;;17.27;12.23;;;;;;;8.12;80.86;102636.38;4884136;29;20056;-90
2021/12/17 08:14:08;;;;;;;15.27;11.25;;;;;;;8.06;80.90;102627.59;4885088;29;20148;-90
2021/12/17 08:16:47;;;;;;;16.50;11.50;;;;;;;8.00;81.25;102616.16;4878678;29;20079;-90
2021/12/17 08:27:25;;;;;;;14.75;11.77;;;;;;;7.90;79.99;102595.94;4892275;29;20105;-90
2021/12/17 08:30:38;;;;;;;18.50;13.02;;;;;;;8.10;79.81;102642.53;4903350;29;20077;-92
2021/12/17 08:32:44;;;;;;;;;;;;;;;8.31;80.31;102678.59;4896444;29;20057;-89
2021/12/17 08:35:12;;;;;;;17.92;11.85;;;;;;;8.22;80.73;102669.78;4904137;29;19938;-88
2021/12/17 08:37:39;;;;;;;16.73;12.27;;;;;;;8.28;79.81;102678.59;4901092;29;20061;-88
2021/12/17 08:40:08;;;;;;;15.73;11.63;;;;;;;8.32;79.08;102688.31;4899133;29;20059;-90
2021/12/17 08:42:35;;;;;;;17.63;11.45;;;;;;;8.29;79.49;102682.09;4916782;29;20057;-87
2021/12/17 08:45:09;;;;;;;16.13;11.35;;;;;;;8.23;79.13;102677.72;4892704;29;20069;-89
2021/12/17 08:47:36;;;;;;;15.25;11.48;;;;;;;8.36;79.23;102689.16;4895041;29;20033;-89
2021/12/17 08:50:06;;;;;;;17.52;12.05;;;;;;;8.40;79.65;102677.72;4898008;29;20437;-89
2021/12/17 08:52:34;;;;;;;20.00;12.98;;;;;;;8.31;78.96;102659.22;4890511;29;20053;-90
2021/12/17 08:55:02;;;;;;;17.17;11.95;;;;;;;8.35;79.22;102672.44;4887745;29;20052;-90
2021/12/17 08:57:31;;;;;;;18.35;12.65;;;;;;;8.40;78.74;102670.69;4892172;29;20064;-90
2021/12/17 09:00:04;;;;;;;18.05;12.13;;;;;;;8.43;78.39;102688.28;4890489;29;20049;-89
2021/12/17 09:02:33;;;;;;;18.13;12.20;;;;;;;8.47;78.29;102686.53;4890972;29;20156;-89
2021/12/17 09:05:01;;;;;;;19.30;13.27;;;;;;;8.56;78.48;102692.66;4895451;29;20120;-89
2021/12/17 09:07:28;;;;;;;17.00;12.38;;;;;;;8.56;77.96;102678.56;4891703;29;20529;-89
2021/12/17 09:09:55;;;;;;;17.63;12.25;;;;;;;8.59;77.63;102687.38;4896500;29;20061;-89
2021/12/17 09:12:22;;;;;;;17.92;12.45;;;;;;;8.52;77.63;102674.16;4891581;29;20091;-90
2021/12/17 09:14:50;;;;;;;18.70;12.43;;;;;;;8.54;77.39;102677.69;4887721;29;20057;-89
2021/12/17 09:17:19;;;;;;;18.45;13.32;;;;;;;8.50;77.53;102674.16;4887208;29;20077;-89
2021/12/17 09:19:46;;;;;;;17.30;12.73;;;;;;;8.63;77.22;102693.53;4885668;29;20049;-90
2021/12/17 09:22:13;;;;;;;20.15;13.18;;;;;;;8.62;78.34;102703.22;4886351;29;20074;-90
2021/12/17 09:24:41;;;;;;;17.85;13.00;;;;;;;8.61;78.27;102695.28;4885920;29;20077;-89
2021/12/17 09:27:08;;;;;;;18.00;12.57;;;;;;;8.39;78.28;102655.72;4884924;29;20500;-90
2021/12/17 09:29:36;;;;;;;17.33;12.52;;;;;;;8.61;78.62;102688.25;4880502;29;20049;-89
2021/12/17 09:32:04;;;;;;;18.92;12.55;;;;;;;8.47;78.21;102676.84;4884051;29;20052;-90
2021/12/17 09:34:31;;;;;;;18.08;12.35;;;;;;;8.73;78.90;102711.97;4882197;29;20143;-90
2021/12/17 09:37:03;;;;;;;19.45;13.75;;;;;;;8.79;78.98;102726.94;4894402;29;20045;-90
2021/12/17 09:39:31;;;;;;;21.05;13.15;;;;;;;8.69;79.01;102715.50;4883169;29;20113;-89
2021/12/17 09:41:57;;;;;;;17.98;12.18;;;;;;;8.81;78.40;102725.19;4879869;29;20139;-89
2021/12/17 09:44:25;;;;;;;19.88;12.50;;;;;;;8.51;78.70;102682.97;4876040;29;20056;-90
2021/12/17 09:46:57;;;;;;;18.08;12.10;;;;;;;8.47;78.80;102687.41;4878581;29;20053;-90
2021/12/17 09:49:24;;;;;;;20.73;12.43;;;;;;;8.71;78.44;102729.59;4877636;29;20061;-91
2021/12/17 09:51:51;;;;;;;16.02;11.68;;;;;;;8.60;78.52;102698.81;4883630;29;21400;-91
2021/12/17 09:54:19;;;;;;;17.38;12.02;;;;;;;8.58;77.87;102690.00;4879517;29;20076;-90
2021/12/17 09:56:46;;;;;;;20.20;12.38;;;;;;;8.52;77.41;102674.16;4879949;29;20056;-91
2021/12/17 09:59:14;;;;;;;15.90;11.40;;;;;;;8.80;76.40;102712.88;4879368;29;20069;-90
2021/12/17 10:01:44;;;;;;;19.00;11.57;;;;;;;8.78;76.42;102704.94;4877055;29;20128;-89
2021/12/17 10:04:14;;;;;;;17.80;12.23;;;;;;;8.85;76.26;102710.19;4879813;29;20143;-90
2021/12/17 10:06:42;;;;;;;17.08;10.82;;;;;;;8.65;75.78;102676.81;4876768;29;20057;-90
2021/12/17 10:09:09;;;;;;;18.88;11.50;;;;;;;8.61;75.75;102672.41;4878541;29;20089;-91
2021/12/17 10:11:36;;;;;;;19.90;11.88;;;;;;;8.63;76.44;102677.69;4878598;29;20143;-89
2021/12/17 10:14:16;;;;;;;15.85;10.73;;;;;;;8.73;76.23;102693.50;4879944;29;20073;-91
2021/12/17 10:16:43;;;;;;;14.10;8.93;;;;;;;8.66;72.94;102659.16;4880416;29;20049;-91
2021/12/17 10:19:10;;;;;;;15.50;8.95;;;;;;;8.98;73.24;102698.69;4878523;29;20841;-91
2021/12/17 10:21:45;;;;;;;14.00;8.77;;;;;;;9.07;71.28;102701.31;4878597;29;20049;-90
2021/12/17 10:24:22;;;;;;;13.10;8.43;;;;;;;9.01;72.24;102714.53;4872204;29;20053;-91
2021/12/17 10:26:49;;;;;;;15.10;8.70;;;;;;;9.05;71.78;102697.78;4884891;29;20052;-90
2021/12/17 10:29:21;;;;;;;14.48;8.40;;;;;;;9.00;70.98;102666.09;4871269;29;20061;-90
2021/12/17 10:31:57;;;;;;;10.75;7.53;;;;;;;9.04;70.45;102667.84;4875844;29;20065;-90
2021/12/17 10:34:25;;;;;;;13.15;7.63;;;;;;;9.06;69.98;102662.56;4880531;29;20088;-92
2021/12/17 10:36:52;;;;;;;10.82;7.00;;;;;;;9.29;69.82;102697.66;4881976;29;20073;-91
2021/12/17 10:39:22;;;;;;;12.57;7.97;;;;;;;9.35;69.35;102688.84;4875154;29;20040;-91
2021/12/17 10:41:49;;;;;;;10.23;6.95;;;;;;;9.40;69.02;102695.88;4879607;29;20064;-91
2021/12/17 10:44:16;;;;;;;10.10;7.20;;;;;;;9.39;68.25;102678.25;4874065;29;20143;-91
2021/12/17 10:47:30;;;;;;;10.73;7.47;;;;;;;9.36;70.01;102694.13;4884354;29;20139;-91
2021/12/17 10:49:59;;;;;;;11.30;7.43;;;;;;;9.23;69.23;102660.69;4891483;29;20056;-91
2021/12/17 10:52:34;;;;;;;10.30;6.68;;;;;;;9.25;68.89;102653.66;4881315;29;20103;-91
2021/12/17 10:55:10;;;;;;;13.63;7.13;;;;;;;9.48;69.01;102696.69;4879155;29;20057;-91
2021/12/17 10:57:37;;;;;;;9.52;6.72;;;;;;;9.20;69.34;102651.91;4875824;29;20132;-91
2021/12/17 11:00:07;;;;;;;10.73;7.43;;;;;;;9.50;69.36;102691.38;4870952;29;20624;-91
2021/12/17 11:02:37;;;;;;;10.15;6.28;;;;;;;9.66;68.67;102686.88;4892160;29;20172;-91
2021/12/17 11:05:11;;;;;;;7.97;6.00;;;;;;;9.82;67.71;102680.59;4879900;29;20402;-91
2021/12/17 11:07:39;;;;;;;7.63;5.25;;;;;;;9.89;67.34;102674.38;4876779;29;20049;-90
2021/12/17 11:10:06;;;;;;;8.93;6.28;;;;;;;9.81;66.51;102669.13;4879349;29;20148;-91
2021/12/17 11:12:38;;;;;;;8.63;5.63;;;;;;;9.73;67.09;102678.03;4882868;29;20059;-91
2021/12/17 11:15:20;;;;;;;9.70;5.65;;;;;;;9.64;67.52;102684.25;4885794;29;20135;-89
2021/12/17 11:18:05;;;;;;;10.43;6.55;;;;;;;9.54;68.25;102679.91;4894224;29;20093;-90
2021/12/17 11:20:35;;;;;;;8.27;5.72;;;;;;;9.47;68.60;102657.03;4899773;29;20082;-90
2021/12/17 11:23:07;;;;;;;7.90;6.03;;;;;;;9.60;68.93;102677.19;4894794;29;20045;-92
2021/12/17 11:25:36;;;;;;;9.07;5.40;;;;;;;9.63;68.88;102660.44;4889682;29;20497;-91
2021/12/17 11:28:04;;;;;;;8.40;5.47;;;;;;;9.52;68.72;102646.41;4892471;29;20065;-92
2021/12/17 11:30:34;;;;;;;7.20;5.22;;;;;;;9.58;69.09;102646.38;4896167;29;20071;-90
2021/12/17 11:33:05;;;;;;;9.45;5.72;;;;;;;9.49;69.29;102634.97;4901153;29;20053;-90
2021/12/17 11:35:36;;;;;;;11.15;5.95;;;;;;;9.13;70.00;102577.91;4896030;29;20055;-90
2021/12/17 11:38:42;;;;;;;9.43;5.95;;;;;;;9.60;69.73;102655.19;4889596;29;20064;-90
2021/12/17 11:41:44;;;;;;;8.65;5.90;;;;;;;9.70;70.36;102656.88;4890864;29;20060;-90
2021/12/17 11:44:12;;;;;;;8.63;5.55;;;;;;;9.58;70.19;102639.34;4889860;29;20076;-90
2021/12/17 11:46:40;;;;;;;9.13;5.57;;;;;;;9.33;70.19;102592.78;4893176;29;20056;-90
2021/12/17 11:49:15;;;;;;;9.55;6.22;;;;;;;9.49;70.72;102629.69;4881809;29;20053;-90
2021/12/17 11:51:54;;;;;;;8.90;5.57;;;;;;;9.58;71.12;102655.19;4881384;29;20139;-90
2021/12/17 11:54:29;;;;;;;8.50;5.65;;;;;;;9.45;71.85;102654.38;4883770;29;20102;-90
2021/12/17 11:57:07;;;;;;;8.07;5.53;;;;;;;9.29;72.22;102628.91;4899452;29;20057;-90
2021/12/17 11:59:39;;;;;;;9.52;6.18;;;;;;;9.36;72.67;102637.72;4877695;29;20597;-90
2021/12/17 12:02:19;;;;;;;8.88;5.65;;;;;;;9.43;72.77;102644.72;4883014;29;20052;-90
2021/12/17 12:04:48;;;;;;;9.55;5.47;;;;;;;9.44;73.34;102649.13;4902508;29;20037;-89
2021/12/17 12:07:19;;;;;;;10.23;6.28;;;;;;;9.53;72.85;102642.88;4902089;29;20053;-90
2021/12/17 12:10:08;;;;;;;9.77;5.82;;;;;;;9.46;72.97;102647.31;4879966;29;20049;-91
2021/12/17 12:12:38;;;;;;;10.85;6.40;;;;;;;9.43;73.27;102637.69;4882002;29;20053;-89
2021/12/17 12:15:21;;;;;;;11.02;7.00;;;;;;;9.40;73.90;102637.69;4892341;29;20048;-89
2021/12/17 12:17:58;;;;;;;13.25;5.82;;;;;;;9.39;74.35;102630.63;4891889;29;20056;-90
2021/12/17 12:23:38;;;;;;;12.60;5.95;;;;;;;9.42;73.61;102637.69;4883365;29;20048;-90
2021/12/17 12:26:04;;;;;;;;;;;;;;;9.35;73.81;102639.47;4881409;29;20072;-89
2021/12/17 12:28:49;;;;;;;9.52;6.10;;;;;;;9.32;74.25;102638.59;4885154;29;19919;-89
2021/12/17 12:31:37;;;;;;;10.35;6.20;;;;;;;9.27;73.94;102646.59;4880128;29;20063;-90
2021/12/17 12:34:06;;;;;;;10.48;6.78;;;;;;;8.99;74.37;102602.66;4878226;29;20513;-89
2021/12/17 12:36:58;;;;;;;10.50;6.18;;;;;;;9.09;74.13;102630.81;4884536;29;20072;-91
2021/12/17 12:39:38;;;;;;;12.18;7.10;;;;;;;9.11;74.86;102645.78;4883923;29;20083;-89
2021/12/17 12:42:20;;;;;;;10.90;7.07;;;;;;;9.12;75.09;102644.03;4884463;29;20100;-89
2021/12/17 12:44:47;;;;;;;11.30;6.75;;;;;;;9.12;75.80;102647.56;4889450;29;20055;-90
2021/12/17 12:47:20;;;;;;;11.55;7.32;;;;;;;9.14;75.63;102644.88;4882214;29;20056;-90
2021/12/17 12:50:03;;;;;;;12.18;7.00;;;;;;;9.24;74.79;102632.50;4880304;29;20053;-90
2021/12/17 12:52:30;;;;;;;11.98;7.10;;;;;;;9.15;75.17;102625.47;4879995;29;20052;-90
2021/12/17 12:55:02;;;;;;;12.70;7.15;;;;;;;9.18;75.68;102635.16;4881810;29;20140;-90
2021/12/17 12:57:34;;;;;;;11.77;6.25;;;;;;;9.08;75.96;102623.78;4895568;29;20073;-90
2021/12/17 13:00:10;;;;;;;9.73;6.38;;;;;;;9.17;75.62;102623.72;4880686;29;20505;-89
2021/12/17 13:02:39;;;;;;;11.93;7.10;;;;;;;8.84;75.58;102586.88;4880719;29;20077;-89
2021/12/17 13:05:07;;;;;;;11.15;7.30;;;;;;;8.96;76.08;102600.06;4883264;29;20053;-89
2021/12/17 13:07:37;;;;;;;12.13;7.53;;;;;;;8.94;76.12;102596.56;4884016;29;20072;-90
2021/12/17 13:10:26;;;;;;;12.90;7.35;;;;;;;8.87;76.29;102598.31;4880308;29;20061;-90
2021/12/17 13:12:54;;;;;;;12.27;7.85;;;;;;;9.03;76.26;102620.28;4881472;29;20081;-89
2021/12/17 13:21:19;;;;;;;11.48;7.45;;;;;;;9.04;75.92;102630.84;4885594;29;20053;-90
2021/12/17 13:23:55;;;;;;;14.32;7.70;;;;;;;8.88;76.08;102615.06;4885040;29;20144;-89
2021/12/17 13:26:25;;;;;;;12.55;7.50;;;;;;;8.96;76.69;102640.59;4884546;29;20083;-90
2021/12/17 13:29:09;;;;;;;14.52;8.48;;;;;;;8.88;76.73;102625.63;4876492;29;20148;-90
2021/12/17 13:31:53;;;;;;;14.52;8.98;;;;;;;8.97;76.21;102638.81;4881594;29;20097;-90
2021/12/17 13:34:35;;;;;;;15.82;8.85;;;;;;;8.67;76.35;102594.88;4881757;29;20052;-89
2021/12/17 13:37:19;;;;;;;13.95;8.23;;;;;;;8.87;76.63;102640.59;4874011;29;20101;-90
2021/12/17 13:39:51;;;;;;;13.65;8.13;;;;;;;8.87;77.04;102631.78;4873569;29;20057;-90
2021/12/17 13:42:21;;;;;;;16.08;8.82;;;;;;;8.72;77.53;102603.69;4880730;29;20415;-90
2021/12/17 13:44:54;;;;;;;15.13;8.25;;;;;;;8.64;77.32;102601.09;4876996;29;20048;-90
2021/12/17 13:47:27;;;;;;;13.23;8.70;;;;;;;8.51;77.44;102587.91;4887716;29;20096;-90
2021/12/17 13:49:54;;;;;;;15.23;8.48;;;;;;;8.81;77.19;102634.50;4887288;29;20052;-90
2021/12/17 13:52:23;;;;;;;16.98;8.38;;;;;;;8.72;77.38;102623.06;4890745;29;20048;-90
2021/12/17 13:54:51;;;;;;;13.15;8.10;;;;;;;8.75;77.89;102638.91;4889758;29;20056;-90
2021/12/17 13:57:21;;;;;;;16.30;7.90;;;;;;;8.76;77.74;102626.56;4891973;29;20079;-89
2021/12/17 13:59:48;;;;;;;15.77;7.95;;;;;;;8.77;77.60;102631.84;4886744;29;20067;-89
2021/12/17 14:02:21;;;;;;;13.07;8.15;;;;;;;8.72;77.56;102635.38;4886035;29;20049;-90
2021/12/17 14:05:05;;;;;;;14.05;8.55;;;;;;;8.66;78.09;102643.31;4885987;29;20057;-90
2021/12/17 14:07:34;;;;;;;14.82;8.88;;;;;;;8.40;78.27;102582.69;4882628;29;20059;-88
2021/12/17 14:10:09;;;;;;;14.55;8.77;;;;;;;8.34;78.29;102580.91;4881845;29;20140;-90
2021/12/17 14:12:40;;;;;;;13.77;8.10;;;;;;;8.28;78.20;102574.75;4882062;29;20049;-89
2021/12/17 14:15:29;;;;;;;14.35;8.70;;;;;;;8.69;78.52;102641.56;4880979;29;20049;-89
2021/12/17 14:18:02;;;;;;;16.13;8.38;;;;;;;8.58;78.33;102616.06;4870576;29;20045;-89
2021/12/17 14:20:41;;;;;;;14.05;8.18;;;;;;;8.60;78.77;102625.75;4881453;29;20079;-89
2021/12/17 14:23:15;;;;;;;14.52;7.95;;;;;;;8.69;78.87;102636.25;4878208;29;20076;-90
2021/12/17 14:25:53;;;;;;;11.65;7.28;;;;;;;8.66;79.16;102638.03;4882773;29;20049;-90
2021/12/17 14:28:36;;;;;;;14.65;8.43;;;;;;;8.59;79.53;102626.63;4879880;29;20055;-88
2021/12/17 14:31:10;;;;;;;13.55;7.35;;;;;;;8.54;79.08;102615.19;4883951;29;20049;-89
2021/12/17 14:33:49;;;;;;;14.93;7.97;;;;;;;8.43;79.38;102595.88;4888467;29;20064;-89
2021/12/17 14:36:18;;;;;;;13.27;7.80;;;;;;;8.64;79.62;102631.91;4884252;29;20052;-90